Time,TemperatureF,DewpointF,PressureIn,WindDirection,WindDirectionDegrees,WindSpeedMPH,WindSpeedGustMPH,Humidity,HourlyPrecipIn,Conditions,Clouds,dailyrainin,SoftwareType,DateUTC
2013-03-25 01:53:00,-4.0,-7.0,30.41,West,265,2.0,-999.0,85,-99.99,,,-99.99,,2013-03-25 07:53:00,
2013-03-25 02:00:00,-4.0,-7.0,30.41,West,265,2.0,-999.0,87,-99.99,,,-99.99,,2013-03-25 08:00:00,
2013-03-25 02:02:00,-4.0,-7.0,30.41,West,265,2.0,-999.0,85,-99.99,,,-99.99,,2013-03-25 08:02:00,
2013-03-25 02:12:00,-4.0,-7.0,30.41,West,265,2.0,-999.0,85,-99.99,,,-99.99,,2013-03-25 08:12:00,
2013-03-25 02:22:00,-4.0,-7.0,30.41,West,265,2.0,-999.0,87,-99.99,,,-99.99,,2013-03-25 08:22:00,
2013-03-25 02:32:00,-4.0,-7.0,30.41,West,265,2.0,-999.0,87,-99.99,,,-99.99,,2013-03-25 08:32:00,
2013-03-25 02:43:00,-4.0,-7.0,30.41,West,265,2.0,-999.0,87,-99.99,,,-99.99,,2013-03-25 08:43:00,
2013-03-25 02:52:00,-4.0,-7.0,30.41,West,265,2.0,-999.0,87,-99.99,,,-99.99,,2013-03-25 08:52:00,
2013-03-25 03:00:00,-7.0,-11.0,30.42,West,265,2.0,-999.0,83,-99.99,,,-99.99,,2013-03-25 09:00:00,
2013-03-25 03:22:00,-7.0,-11.0,30.42,West,265,2.0,-999.0,83,-99.99,,,-99.99,,2013-03-25 09:22:00,
2013-03-25 03:33:00,-7.0,-11.0,30.42,West,265,2.0,-999.0,83,-99.99,,,-99.99,,2013-03-25 09:33:00,
2013-03-25 03:43:00,-7.0,-11.0,30.42,West,265,2.0,-999.0,83,-99.99,,,-99.99,,2013-03-25 09:43:00,
2013-03-25 03:52:00,-7.0,-11.0,30.42,West,265,2.0,-999.0,83,-99.99,,,-99.99,,2013-03-25 09:52:00,
2013-03-25 04:54:00,-7.0,-11.0,30.39,West,265,2.0,-999.0,84,-99.99,,,-99.99,,2013-03-25 10:54:00,
2013-03-25 05:03:00,-7.0,-11.0,30.39,West,265,2.0,-999.0,84,-99.99,,,-99.99,,2013-03-25 11:03:00,
2013-03-25 05:12:00,-7.0,-11.0,30.39,West,265,2.0,-999.0,84,-99.99,,,-99.99,,2013-03-25 11:12:00,
2013-03-25 05:23:00,-8.0,-11.0,30.39,West,265,2.0,-999.0,85,-99.99,,,-99.99,,2013-03-25 11:23:00,
2013-03-25 05:32:00,-8.0,-11.0,30.39,West,265,2.0,-999.0,85,-99.99,,,-99.99,,2013-03-25 11:32:00,
2013-03-25 05:42:00,-8.0,-11.0,30.39,West,265,2.0,-999.0,85,-99.99,,,-99.99,,2013-03-25 11:42:00,
2013-03-25 05:52:00,-8.0,-11.0,30.39,West,265,2.0,-999.0,85,-99.99,,,-99.99,,2013-03-25 11:52:00,
2013-03-25 06:02:00,-8.0,-11.0,30.39,West,265,2.0,-999.0,85,-99.99,,,-99.99,,2013-03-25 12:02:00,
2013-03-25 06:13:00,-8.0,-11.0,30.39,West,265,2.0,-999.0,85,-99.99,,,-99.99,,2013-03-25 12:13:00,
2013-03-25 06:23:00,-11.0,-15.0,30.39,West,265,2.0,-999.0,83,-99.99,,,-99.99,,2013-03-25 12:23:00,
2013-03-25 06:32:00,-11.0,-15.0,30.39,West,265,2.0,-999.0,83,-99.99,,,-99.99,,2013-03-25 12:32:00,
2013-03-25 06:43:00,-11.0,-15.0,30.39,West,265,2.0,-999.0,83,-99.99,,,-99.99,,2013-03-25 12:43:00,
2013-03-25 06:53:00,-13.0,-17.0,30.40,West,265,2.0,-999.0,83,-99.99,,,-99.99,,2013-03-25 12:53:00,
2013-03-25 07:02:00,-13.0,-17.0,30.40,West,265,2.0,-999.0,83,-99.99,,,-99.99,,2013-03-25 13:02:00,
2013-03-25 07:13:00,-13.0,-17.0,30.40,West,265,2.0,-999.0,83,-99.99,,,-99.99,,2013-03-25 13:13:00,
2013-03-25 07:22:00,-13.0,-17.0,30.40,West,265,2.0,-999.0,82,-99.99,,,-99.99,,2013-03-25 13:22:00,
2013-03-25 07:30:00,-13.0,-17.0,30.40,West,265,1.0,-999.0,82,-99.99,,,-99.99,,2013-03-25 13:30:00,
2013-03-25 07:32:00,-13.0,-17.0,30.40,West,265,2.0,-999.0,82,-99.99,,,-99.99,,2013-03-25 13:32:00,
2013-03-25 07:43:00,-13.0,-17.0,30.40,West,265,2.0,-999.0,82,-99.99,,,-99.99,,2013-03-25 13:43:00,
2013-03-25 07:52:00,-13.0,-17.0,30.40,West,265,1.0,-999.0,82,-99.99,,,-99.99,,2013-03-25 13:52:00,
2013-03-25 08:03:00,-13.0,-17.0,30.40,West,265,1.0,-999.0,82,-99.99,,,-99.99,,2013-03-25 14:03:00,
2013-03-25 08:12:00,-13.0,-17.0,30.40,West,265,1.0,-999.0,82,-99.99,,,-99.99,,2013-03-25 14:12:00,
2013-03-25 08:22:00,-13.0,-17.0,30.40,West,265,1.0,-999.0,82,-99.99,,,-99.99,,2013-03-25 14:22:00,
2013-03-25 08:30:00,-9.0,-12.0,30.40,West,265,2.0,-999.0,84,-99.99,,,-99.99,,2013-03-25 14:30:00,
2013-03-25 08:53:00,-9.0,-12.0,30.40,West,265,2.0,-999.0,84,-99.99,,,-99.99,,2013-03-25 14:53:00,
2013-03-25 09:02:00,-9.0,-12.0,30.40,West,265,2.0,-999.0,84,-99.99,,,-99.99,,2013-03-25 15:02:00,
2013-03-25 09:12:00,-9.0,-12.0,30.40,West,265,2.0,-999.0,84,-99.99,,,-99.99,,2013-03-25 15:12:00,
2013-03-25 09:22:00,-9.0,-12.0,30.40,West,265,2.0,-999.0,84,-99.99,,,-99.99,,2013-03-25 15:22:00,
2013-03-25 10:00:00,3.0,0.0,30.38,West,265,0.0,-999.0,88,-99.99,,,-99.99,,2013-03-25 16:00:00,
2013-03-25 10:33:00,3.0,0.0,30.38,West,265,0.0,-999.0,88,-99.99,,,-99.99,,2013-03-25 16:33:00,
2013-03-25 10:43:00,3.0,0.0,30.38,West,265,0.0,-999.0,88,-99.99,,,-99.99,,2013-03-25 16:43:00,
2013-03-25 10:53:00,3.0,0.0,30.38,West,265,0.0,-999.0,88,-99.99,,,-99.99,,2013-03-25 16:53:00,
2013-03-25 11:24:00,10.0,7.0,30.38,West,265,0.0,-999.0,88,-99.99,,,-99.99,,2013-03-25 17:24:00,
2013-03-25 11:30:00,9.0,6.0,30.37,West,265,2.0,-999.0,87,-99.99,,,-99.99,,2013-03-25 17:30:00,
2013-03-25 11:33:00,10.0,7.0,30.38,West,265,0.0,-999.0,88,-99.99,,,-99.99,,2013-03-25 17:33:00,
2013-03-25 11:43:00,10.0,7.0,30.38,West,265,0.0,-999.0,88,-99.99,,,-99.99,,2013-03-25 17:43:00,
2013-03-25 11:53:00,9.0,6.0,30.37,West,265,2.0,-999.0,87,-99.99,,,-99.99,,2013-03-25 17:53:00,
2013-03-25 12:03:00,9.0,6.0,30.37,West,265,2.0,-999.0,87,-99.99,,,-99.99,,2013-03-25 18:03:00,
2013-03-25 12:12:00,9.0,6.0,30.37,West,265,2.0,-999.0,87,-99.99,,,-99.99,,2013-03-25 18:12:00,
2013-03-25 12:22:00,9.0,6.0,30.37,West,265,2.0,-999.0,87,-99.99,,,-99.99,,2013-03-25 18:22:00,
2013-03-25 12:53:00,13.0,10.0,30.36,South,188,7.0,-999.0,87,-99.99,,,-99.99,,2013-03-25 18:53:00,
2013-03-25 13:00:00,15.0,12.0,30.35,South,186,7.0,-999.0,87,-99.99,,,-99.99,,2013-03-25 19:00:00,
2013-03-25 13:03:00,13.0,10.0,30.36,South,188,7.0,-999.0,87,-99.99,,,-99.99,,2013-03-25 19:03:00,
2013-03-25 13:12:00,13.0,10.0,30.36,South,188,7.0,-999.0,87,-99.99,,,-99.99,,2013-03-25 19:12:00,
2013-03-25 13:23:00,15.0,12.0,30.35,South,186,7.0,-999.0,87,-99.99,,,-99.99,,2013-03-25 19:23:00,
2013-03-25 13:33:00,15.0,12.0,30.35,South,186,7.0,-999.0,87,-99.99,,,-99.99,,2013-03-25 19:33:00,
2013-03-25 13:43:00,15.0,12.0,30.35,South,186,7.0,-999.0,87,-99.99,,,-99.99,,2013-03-25 19:43:00,
2013-03-25 13:52:00,15.0,12.0,30.35,South,186,7.0,-999.0,87,-99.99,,,-99.99,,2013-03-25 19:52:00,
2013-03-25 14:00:00,17.0,13.0,30.34,South,177,9.0,-999.0,85,-99.99,,,-99.99,,2013-03-25 20:00:00,
2013-03-25 14:22:00,17.0,13.0,30.34,South,177,9.0,-999.0,85,-99.99,,,-99.99,,2013-03-25 20:22:00,
2013-03-25 14:32:00,17.0,13.0,30.34,South,177,9.0,-999.0,85,-99.99,,,-99.99,,2013-03-25 20:32:00,
2013-03-25 14:42:00,17.0,13.0,30.34,South,177,9.0,-999.0,85,-99.99,,,-99.99,,2013-03-25 20:42:00,
2013-03-25 14:52:00,17.0,13.0,30.34,South,177,9.0,-999.0,85,-99.99,,,-99.99,,2013-03-25 20:52:00,
2013-03-25 15:00:00,18.0,14.0,30.32,SSE,162,9.0,-999.0,84,-99.99,,,-99.99,,2013-03-25 21:00:00,
2013-03-25 15:22:00,18.0,14.0,30.32,SSE,162,9.0,-999.0,84,-99.99,,,-99.99,,2013-03-25 21:22:00,
2013-03-25 15:33:00,18.0,14.0,30.32,SSE,162,9.0,-999.0,84,-99.99,,,-99.99,,2013-03-25 21:33:00,
2013-03-25 15:43:00,18.0,14.0,30.32,SSE,162,9.0,-999.0,84,-99.99,,,-99.99,,2013-03-25 21:43:00,
2013-03-25 15:52:00,18.0,14.0,30.32,SSE,162,9.0,-999.0,84,-99.99,,,-99.99,,2013-03-25 21:52:00,
2013-03-25 16:24:00,20.0,15.0,30.30,SSE,153,10.0,-999.0,82,-99.99,,,-99.99,,2013-03-25 22:24:00,
2013-03-25 16:33:00,20.0,15.0,30.30,SSE,153,10.0,-999.0,82,-99.99,,,-99.99,,2013-03-25 22:33:00,
2013-03-25 16:42:00,20.0,15.0,30.30,SSE,153,10.0,-999.0,82,-99.99,,,-99.99,,2013-03-25 22:42:00,
2013-03-25 16:52:00,20.0,16.0,30.29,SSE,148,11.0,-999.0,83,-99.99,,,-99.99,,2013-03-25 22:52:00,
2013-03-25 17:00:00,21.0,17.0,30.28,SSE,147,10.0,-999.0,83,-99.99,,,-99.99,,2013-03-25 23:00:00,
2013-03-25 17:02:00,20.0,16.0,30.29,SSE,148,11.0,-999.0,83,-99.99,,,-99.99,,2013-03-25 23:02:00,
2013-03-25 17:12:00,20.0,16.0,30.29,SSE,148,11.0,-999.0,83,-99.99,,,-99.99,,2013-03-25 23:12:00,
2013-03-25 17:23:00,21.0,17.0,30.28,SSE,147,10.0,-999.0,83,-99.99,,,-99.99,,2013-03-25 23:23:00,
2013-03-25 17:32:00,21.0,17.0,30.28,SSE,147,10.0,-999.0,83,-99.99,,,-99.99,,2013-03-25 23:32:00,
2013-03-25 17:43:00,21.0,17.0,30.28,SSE,147,10.0,-999.0,83,-99.99,,,-99.99,,2013-03-25 23:43:00,
2013-03-25 17:53:00,21.0,17.0,30.28,SSE,147,10.0,-999.0,83,-99.99,,,-99.99,,2013-03-25 23:53:00,
2013-03-25 18:52:00,18.0,13.0,30.27,SSE,147,4.0,-999.0,80,-99.99,,,-99.99,,2013-03-26 00:52:00,
2013-03-25 19:02:00,18.0,13.0,30.27,SSE,147,4.0,-999.0,80,-99.99,,,-99.99,,2013-03-26 01:02:00,
2013-03-25 19:12:00,18.0,13.0,30.27,SSE,147,4.0,-999.0,80,-99.99,,,-99.99,,2013-03-26 01:12:00,
2013-03-25 19:22:00,16.0,12.0,30.27,SSE,147,5.0,-999.0,85,-99.99,,,-99.99,,2013-03-26 01:22:00,
2013-03-25 19:32:00,16.0,12.0,30.27,SSE,147,5.0,-999.0,85,-99.99,,,-99.99,,2013-03-26 01:32:00,
2013-03-25 19:42:00,16.0,12.0,30.27,SSE,147,5.0,-999.0,85,-99.99,,,-99.99,,2013-03-26 01:42:00,
2013-03-25 19:52:00,15.0,12.0,30.27,SSE,147,0.0,-999.0,86,-99.99,,,-99.99,,2013-03-26 01:52:00,
2013-03-25 20:00:00,13.0,10.0,30.26,SSE,147,7.0,-999.0,88,-99.99,,,-99.99,,2013-03-26 02:00:00,
2013-03-25 20:02:00,15.0,12.0,30.27,SSE,147,0.0,-999.0,86,-99.99,,,-99.99,,2013-03-26 02:02:00,
2013-03-25 20:12:00,15.0,12.0,30.27,SSE,147,0.0,-999.0,86,-99.99,,,-99.99,,2013-03-26 02:12:00,
2013-03-25 20:22:00,13.0,10.0,30.26,SSE,147,7.0,-999.0,88,-99.99,,,-99.99,,2013-03-26 02:22:00,
2013-03-25 20:32:00,13.0,10.0,30.26,SSE,147,7.0,-999.0,88,-99.99,,,-99.99,,2013-03-26 02:32:00,
2013-03-25 20:43:00,13.0,10.0,30.26,SSE,147,7.0,-999.0,88,-99.99,,,-99.99,,2013-03-26 02:43:00,
2013-03-25 20:52:00,13.0,10.0,30.26,SSE,147,7.0,-999.0,88,-99.99,,,-99.99,,2013-03-26 02:52:00,
2013-03-25 21:00:00,12.0,9.0,30.22,SSE,147,4.0,-999.0,89,-99.99,,,-99.99,,2013-03-26 03:00:00,
2013-03-25 21:22:00,12.0,9.0,30.22,SSE,147,4.0,-999.0,89,-99.99,,,-99.99,,2013-03-26 03:22:00,
2013-03-25 21:34:00,12.0,9.0,30.22,SSE,147,4.0,-999.0,89,-99.99,,,-99.99,,2013-03-26 03:34:00,
2013-03-25 21:43:00,12.0,9.0,30.22,SSE,147,4.0,-999.0,89,-99.99,,,-99.99,,2013-03-26 03:43:00,
2013-03-25 21:53:00,12.0,9.0,30.22,SSE,147,4.0,-999.0,89,-99.99,,,-99.99,,2013-03-26 03:53:00,
2013-03-25 22:23:00,13.0,11.0,30.24,SSE,147,3.0,-999.0,93,-99.99,,,-99.99,,2013-03-26 04:23:00,
2013-03-25 22:33:00,13.0,11.0,30.24,SSE,147,3.0,-999.0,93,-99.99,,,-99.99,,2013-03-26 04:33:00,
2013-03-25 22:43:00,13.0,11.0,30.24,SSE,147,3.0,-999.0,93,-99.99,,,-99.99,,2013-03-26 04:43:00,
2013-03-25 22:53:00,14.0,12.0,30.23,SSE,147,4.0,-999.0,90,-99.99,,,-99.99,,2013-03-26 04:53:00,
2013-03-25 23:00:00,14.0,12.0,30.23,SSE,147,2.0,-999.0,90,-99.99,,,-99.99,,2013-03-26 05:00:00,
2013-03-25 23:02:00,14.0,12.0,30.23,SSE,147,4.0,-999.0,90,-99.99,,,-99.99,,2013-03-26 05:02:00,
2013-03-25 23:12:00,14.0,12.0,30.23,SSE,147,4.0,-999.0,90,-99.99,,,-99.99,,2013-03-26 05:12:00,
2013-03-25 23:22:00,14.0,12.0,30.23,SSE,147,2.0,-999.0,90,-99.99,,,-99.99,,2013-03-26 05:22:00,
2013-03-25 23:32:00,14.0,12.0,30.23,SSE,147,2.0,-999.0,90,-99.99,,,-99.99,,2013-03-26 05:32:00,
2013-03-25 23:42:00,14.0,12.0,30.23,SSE,147,2.0,-999.0,90,-99.99,,,-99.99,,2013-03-26 05:42:00,
2013-03-25 23:52:00,14.0,12.0,30.23,SSE,147,2.0,-999.0,90,-99.99,,,-99.99,,2013-03-26 05:52:00,